Ástor Piazzola International Airport
SAZM : now visible

Airfield :











YOU CAN JOIN US ON...

 
LOGIN :

Register | Disclaimer

   EN    FR    IT 

 









Legend :    VFR   Marginal VFR   IFR   Intensive IFR   Very Intensive IFR
Visi :
Ceiling :
>= 8 km
>= 3000ft
5 to 8 km
1000 to 3000 ft
1500m to 5 km
500 to 1000 ft
800 to 1500m
200 to 500 ft
< 800m
< 200 ft
Symbols :   Thunderstorms  Fog  Heavy snow  Heavy precipitations  Wind > 20 kt






- Airport Elevation : 72 ft
- IATA code : MDQ


SAZM - Ástor Piazzola International

CURRENT METAR :
  • 021200Z 20015G28KT 9999 SCT032 17/10 Q1016

EXPIRED METARs :
  • 021100Z 20021KT 9999 BKN028 16/10 Q1015
  • 021000Z 20014G26KT 9999 SCT030 16/11 Q1015

TAF TAF SAZM
Valid from the 02 at 12:00 until the 03 at 12:00 UTC


021100Z 0212/0312 20020G30KT 9999 BKN030 TX19/0218Z TN13/0309Z
BECMG 0219/0222 20015KT 9999 SCT030
BECMG 0305/0307 16005KT 9999 BKN010



MET'MAP, your aeronautical weather chart ! - Copyright ORBIFLY December 2007 - Disclaimer

ORBIFLY MET'MAP TEAM :

Programming & Development : Alexandra Zaïnal
Concept & original design : Baudouin d'Aumeries
Assistance for programming : Marc-Olivier Méhu
Technical & hardware support : Manuel Goepfert

Contact : metmap@orbifly.com




SOURCES & CREDITS :

   NOAA       Earth
Advisory